Time;durP1;ratioP1;P1;durP2;ratioP2;P2;SDS_P1;SDS_P2;PMS_P1;PMS_P2;Temp;Humidity;BMP_temperature;BMP_pressure;BME280_temperature;BME280_humidity;BME280_pressure;Samples;Min_cycle;Max_cycle;Signal;HPM_P1;HPM_P2
2022/01/26 00:06:56;;;;;;;5.57;5.17;;;2.40;99.90;;;;;;5032996;28;20688;-62
2022/01/26 00:09:26;;;;;;;6.07;5.67;;;2.40;99.90;;;;;;5033212;28;20231;-61
2022/01/26 00:11:56;;;;;;;6.57;6.07;;;2.40;99.90;;;;;;5033148;28;20208;-61
2022/01/26 00:14:23;;;;;;;5.50;5.20;;;2.30;99.90;;;;;;5033071;28;20200;-62
2022/01/26 00:16:50;;;;;;;5.83;5.43;;;2.30;99.90;;;;;;5029959;28;20694;-62
2022/01/26 00:19:22;;;;;;;5.43;5.13;;;2.30;99.90;;;;;;5030511;28;20281;-62
2022/01/26 00:21:51;;;;;;;5.40;5.10;;;2.40;99.90;;;;;;5035671;28;20201;-62
2022/01/26 00:27:09;;;;;;;5.87;5.47;;;2.50;99.90;;;;;;5034599;28;20184;-61
2022/01/26 00:29:39;;;;;;;5.07;4.77;;;2.40;99.90;;;;;;5032701;28;20610;-62
2022/01/26 00:40:30;;;;;;;5.20;4.90;;;2.30;99.90;;;;;;5026084;28;20232;-62
2022/01/26 00:43:03;;;;;;;4.90;4.60;;;2.30;99.90;;;;;;5029541;28;20205;-62
2022/01/26 00:45:34;;;;;;;4.67;4.37;;;2.30;99.90;;;;;;5034177;28;20314;-62
2022/01/26 00:48:03;;;;;;;5.10;4.80;;;2.30;99.90;;;;;;5045606;28;20267;-63
2022/01/26 00:50:30;;;;;;;6.60;6.00;;;2.40;99.90;;;;;;5041902;28;20300;-60
2022/01/26 00:52:57;;;;;;;5.63;5.23;;;2.30;99.90;;;;;;5043926;28;20259;-62
2022/01/26 00:55:24;;;;;;;5.60;5.20;;;2.20;99.90;;;;;;5054391;28;20228;-62
2022/01/26 00:57:52;;;;;;;7.37;6.53;;;2.10;99.90;;;;;;5055045;28;20288;-62
2022/01/26 01:00:22;;;;;;;16.10;8.00;;;2.10;99.90;;;;;;5053921;28;20232;-66
2022/01/26 01:02:49;;;;;;;6.70;6.10;;;1.70;99.90;;;;;;5044358;28;20200;-63
2022/01/26 01:05:19;;;;;;;10.37;8.47;;;1.50;99.90;;;;;;5054037;28;20255;-63
2022/01/26 01:07:48;;;;;;;6.30;5.90;;;1.40;99.90;;;;;;5044492;28;20262;-63
2022/01/26 01:10:18;;;;;;;12.23;8.07;;;1.40;99.90;;;;;;5032766;28;20205;-63
2022/01/26 01:12:48;;;;;;;7.57;6.90;;;1.50;99.90;;;;;;5032347;28;20204;-63
2022/01/26 01:15:15;;;;;;;6.70;6.10;;;1.50;99.90;;;;;;5032129;28;20669;-63
2022/01/26 01:17:48;;;;;;;6.77;6.07;;;1.50;99.90;;;;;;5032504;28;20258;-62
2022/01/26 01:20:32;;;;;;;7.83;5.87;;;1.40;99.90;;;;;;5032304;28;20204;-61
2022/01/26 01:23:16;;;;;;;5.43;5.03;;;1.50;99.90;;;;;;5032399;28;20189;-62
2022/01/26 01:28:57;;;;;;;8.97;6.30;;;1.50;99.90;;;;;;4970936;28;20215;-62
2022/01/26 01:31:40;;;;;;;5.00;4.70;;;1.50;99.90;;;;;;4971264;28;20676;-61
2022/01/26 01:34:09;;;;;;;7.60;6.90;;;1.60;99.90;;;;;;5010428;28;20207;-61
2022/01/26 01:36:38;;;;;;;5.23;4.93;;;1.60;99.90;;;;;;5032027;28;20247;-62
2022/01/26 01:39:07;;;;;;;6.33;5.73;;;1.60;99.90;;;;;;5033047;28;20231;-62
2022/01/26 01:41:34;;;;;;;5.87;5.37;;;1.60;99.90;;;;;;5034842;28;20205;-61
2022/01/26 01:44:02;;;;;;;6.47;5.87;;;1.50;99.90;;;;;;5032868;28;20214;-61
2022/01/26 01:46:29;;;;;;;11.07;6.93;;;1.60;99.90;;;;;;5031595;28;20255;-62
2022/01/26 01:48:56;;;;;;;5.23;4.93;;;1.50;99.90;;;;;;5031778;28;20319;-62
2022/01/26 01:51:29;;;;;;;5.03;4.73;;;1.50;99.90;;;;;;5031667;28;20212;-62
2022/01/26 01:53:56;;;;;;;6.23;5.67;;;1.60;99.90;;;;;;5031819;28;20639;-62
2022/01/26 01:56:25;;;;;;;5.07;4.77;;;1.60;99.90;;;;;;5031299;28;20714;-63
2022/01/26 01:58:53;;;;;;;12.97;8.10;;;1.70;99.90;;;;;;5032180;28;20207;-62
2022/01/26 02:01:20;;;;;;;6.27;5.40;;;1.60;99.90;;;;;;5031765;28;20600;-62
2022/01/26 02:03:47;;;;;;;6.67;6.07;;;1.40;99.90;;;;;;5034096;28;20235;-62
2022/01/26 02:06:14;;;;;;;5.80;5.37;;;1.40;99.90;;;;;;5035617;28;20794;-61
2022/01/26 02:08:43;;;;;;;5.40;5.00;;;1.50;99.90;;;;;;5036191;28;20248;-62
2022/01/26 02:11:12;;;;;;;5.47;5.17;;;1.70;99.90;;;;;;5035598;28;20240;-63
2022/01/26 02:13:47;;;;;;;5.20;4.90;;;1.90;99.90;;;;;;5036373;28;20205;-63
2022/01/26 02:16:21;;;;;;;6.33;5.77;;;2.00;99.90;;;;;;5048116;28;20307;-62
2022/01/26 02:19:10;;;;;;;5.27;4.97;;;2.00;99.90;;;;;;5047468;28;20276;-63
2022/01/26 02:52:00;;;;;;;3.73;3.53;;;2.10;99.90;;;;;;5016696;28;20207;-62
2022/01/26 03:00:19;;;;;;;4.30;4.10;;;2.10;99.90;;;;;;4954866;29;20227;-62
2022/01/26 03:02:52;;;;;;;4.10;3.77;;;2.00;99.90;;;;;;5013253;28;20220;-63
2022/01/26 03:05:22;;;;;;;4.03;3.83;;;2.00;99.90;;;;;;5028219;28;20229;-62
2022/01/26 03:07:54;;;;;;;4.50;4.20;;;1.90;99.90;;;;;;5029093;28;20209;-62
2022/01/26 03:10:30;;;;;;;5.03;4.73;;;1.90;99.90;;;;;;5028611;28;20209;-62
2022/01/26 03:13:00;;;;;;;8.30;6.80;;;1.80;99.90;;;;;;5014665;28;20730;-63
2022/01/26 03:15:32;;;;;;;5.50;5.10;;;1.60;99.90;;;;;;5013347;28;20232;-61
2022/01/26 03:20:58;;;;;;;11.30;7.27;;;1.50;99.90;;;;;;5014450;28;20185;-63
2022/01/26 03:29:14;;;;;;;8.13;6.70;;;1.00;99.90;;;;;;5032646;28;20239;-61
2022/01/26 03:32:49;;;;;;;8.23;7.43;;;1.00;99.90;;;;;;5027961;28;20200;-62
2022/01/26 03:34:59;;;;;;;8.63;6.97;;;1.00;99.90;;;;;;5033550;28;20225;-62
2022/01/26 03:37:30;;;;;;;9.67;7.10;;;1.00;99.90;;;;;;5034149;28;20212;-62
2022/01/26 03:39:57;;;;;;;6.40;5.90;;;1.10;99.90;;;;;;5034239;28;20264;-62
2022/01/26 03:42:25;;;;;;;11.67;7.00;;;1.20;99.90;;;;;;5034118;28;20579;-61
2022/01/26 03:44:52;;;;;;;12.03;8.53;;;1.20;99.90;;;;;;5045652;22;20231;-62
2022/01/26 03:47:19;;;;;;;6.23;5.63;;;1.20;99.90;;;;;;5032463;28;20208;-61
2022/01/26 03:49:46;;;;;;;5.30;4.93;;;1.20;99.90;;;;;;5042034;28;20252;-62
2022/01/26 03:52:13;;;;;;;6.43;5.83;;;1.20;99.90;;;;;;5039110;28;20721;-62
2022/01/26 03:54:40;;;;;;;6.40;5.77;;;1.40;99.90;;;;;;5036304;28;20259;-61
2022/01/26 03:57:07;;;;;;;8.17;6.73;;;1.40;99.90;;;;;;5035499;28;20283;-61
2022/01/26 03:59:35;;;;;;;6.27;5.70;;;1.30;99.90;;;;;;5035695;28;20239;-61
2022/01/26 04:02:03;;;;;;;7.93;7.13;;;1.20;99.90;;;;;;5034667;28;20676;-61
2022/01/26 04:04:34;;;;;;;6.83;5.60;;;1.20;99.90;;;;;;5033769;28;20312;-62
2022/01/26 04:07:02;;;;;;;7.03;6.43;;;1.20;99.90;;;;;;5034011;28;20698;-63
2022/01/26 04:09:28;;;;;;;8.20;6.53;;;1.30;99.90;;;;;;5034152;28;20337;-62
2022/01/26 04:11:55;;;;;;;5.97;5.47;;;1.20;99.90;;;;;;5034389;28;20236;-62
2022/01/26 04:14:27;;;;;;;5.70;5.13;;;1.30;99.90;;;;;;5033875;28;20229;-62
2022/01/26 04:16:55;;;;;;;5.20;4.90;;;1.50;99.90;;;;;;5033596;28;20217;-61
2022/01/26 04:19:23;;;;;;;5.33;4.93;;;1.60;99.90;;;;;;5034073;28;20235;-62
2022/01/26 04:22:00;;;;;;;5.70;5.30;;;1.70;99.90;;;;;;5033771;28;20561;-62
2022/01/26 04:24:33;;;;;;;6.00;5.40;;;1.70;99.90;;;;;;5034307;28;20243;-62
2022/01/26 04:27:03;;;;;;;5.23;4.83;;;1.70;99.90;;;;;;5033587;28;20593;-62
2022/01/26 04:29:33;;;;;;;5.67;5.27;;;1.70;99.90;;;;;;5033531;28;20250;-61
2022/01/26 04:32:02;;;;;;;6.17;5.77;;;1.70;99.90;;;;;;5033580;28;20243;-62
2022/01/26 04:34:29;;;;;;;5.40;5.00;;;1.70;99.90;;;;;;5033565;28;20259;-61
2022/01/26 04:37:02;;;;;;;4.90;4.60;;;1.60;99.90;;;;;;5033411;28;20575;-61
2022/01/26 04:39:34;;;;;;;4.60;4.30;;;1.60;99.90;;;;;;5033362;28;20231;-61
2022/01/26 04:42:05;;;;;;;4.30;4.00;;;1.70;99.90;;;;;;5033461;28;20223;-60
2022/01/26 04:44:37;;;;;;;4.10;3.90;;;1.70;99.90;;;;;;5033054;28;20248;-61
2022/01/26 04:47:06;;;;;;;4.10;3.87;;;1.80;99.90;;;;;;5033291;28;20219;-60
2022/01/26 04:49:34;;;;;;;4.90;4.60;;;1.90;99.90;;;;;;5032804;28;20308;-63
2022/01/26 04:52:01;;;;;;;4.80;4.50;;;1.90;99.90;;;;;;5032932;28;20644;-63
2022/01/26 04:54:28;;;;;;;7.07;5.53;;;1.90;99.90;;;;;;5032476;28;20582;-61
2022/01/26 04:56:55;;;;;;;6.43;5.93;;;1.80;99.90;;;;;;5032752;28;20204;-62
2022/01/26 04:59:21;;;;;;;10.07;6.37;;;1.70;99.90;;;;;;5032616;28;20709;-62
2022/01/26 05:01:48;;;;;;;5.33;5.00;;;1.60;99.90;;;;;;5032792;28;20342;-61
2022/01/26 05:04:17;;;;;;;13.50;8.43;;;1.50;99.90;;;;;;5032331;28;20278;-62
2022/01/26 05:06:43;;;;;;;17.13;11.00;;;1.40;99.90;;;;;;5032614;28;20576;-62
2022/01/26 05:09:10;;;;;;;8.67;7.83;;;1.00;99.90;;;;;;5032500;28;20208;-61
2022/01/26 05:11:40;;;;;;;24.07;13.17;;;0.80;99.90;;;;;;5032636;28;20300;-60
2022/01/26 05:14:07;;;;;;;10.97;9.57;;;0.60;99.90;;;;;;5032522;28;20200;-61
2022/01/26 05:16:34;;;;;;;7.13;6.23;;;0.40;99.90;;;;;;5032507;28;20208;-58
2022/01/26 05:19:02;;;;;;;6.87;4.57;;;2.30;99.90;;;;;;5032449;28;20204;-58
2022/01/26 05:21:30;;;;;;;4.43;4.03;;;4.30;99.90;;;;;;5032185;28;20254;-58
2022/01/26 05:23:57;;;;;;;4.00;3.80;;;6.00;99.90;;;;;;5032489;28;20205;-58
2022/01/26 05:26:25;;;;;;;8.70;5.73;;;7.10;99.90;;;;;;5032472;28;20636;-62
2022/01/26 05:28:52;;;;;;;10.10;5.90;;;6.70;99.90;;;;;;5032133;28;20251;-62
2022/01/26 05:31:19;;;;;;;6.47;5.10;;;5.20;99.90;;;;;;5031980;28;20311;-62
2022/01/26 05:33:46;;;;;;;4.60;4.20;;;4.20;99.90;;;;;;5032850;28;20240;-61
2022/01/26 05:36:13;;;;;;;5.27;4.90;;;3.40;99.90;;;;;;5032547;28;20608;-61
2022/01/26 05:38:41;;;;;;;4.80;4.50;;;2.90;99.90;;;;;;5032521;28;20240;-62
2022/01/26 05:41:10;;;;;;;9.43;6.27;;;2.50;99.90;;;;;;5032266;28;20287;-61
2022/01/26 05:43:37;;;;;;;4.87;4.33;;;2.20;99.90;;;;;;5032203;28;20678;-60
2022/01/26 05:46:08;;;;;;;4.90;4.60;;;2.00;99.90;;;;;;5032898;28;20268;-61
2022/01/26 05:48:37;;;;;;;4.27;3.97;;;1.90;99.90;;;;;;5033681;28;20185;-61
2022/01/26 05:51:07;;;;;;;4.30;4.00;;;1.90;99.90;;;;;;5032251;28;20719;-61
2022/01/26 05:53:35;;;;;;;4.27;3.97;;;2.00;99.90;;;;;;5033056;28;20574;-62
2022/01/26 05:56:04;;;;;;;4.13;3.83;;;1.90;99.90;;;;;;5032701;28;20653;-61
2022/01/26 05:58:31;;;;;;;4.87;4.47;;;1.90;99.90;;;;;;5032160;28;20736;-61
2022/01/26 06:01:00;;;;;;;4.17;3.87;;;1.70;99.90;;;;;;5031665;28;20769;-61
2022/01/26 06:03:28;;;;;;;5.10;4.80;;;1.60;99.90;;;;;;5031992;28;20209;-61
2022/01/26 06:05:55;;;;;;;4.70;4.40;;;1.50;99.90;;;;;;5031585;28;20228;-62
2022/01/26 06:08:22;;;;;;;4.00;3.80;;;1.50;99.90;;;;;;5032298;28;20279;-63
2022/01/26 06:10:50;;;;;;;3.70;3.50;;;1.70;99.90;;;;;;5031960;28;20343;-63
2022/01/26 06:13:18;;;;;;;3.67;3.47;;;1.80;99.90;;;;;;5032298;28;20295;-62
2022/01/26 06:15:47;;;;;;;3.87;3.67;;;1.90;99.90;;;;;;5031715;28;20224;-62
2022/01/26 06:18:13;;;;;;;3.97;3.67;;;1.90;99.90;;;;;;5032201;28;20205;-63
2022/01/26 06:20:41;;;;;;;3.87;3.67;;;1.90;99.90;;;;;;5031881;28;20208;-61
2022/01/26 06:23:08;;;;;;;3.97;3.77;;;1.80;99.90;;;;;;5032214;28;20281;-62
2022/01/26 06:25:34;;;;;;;4.33;4.03;;;1.80;99.90;;;;;;5031330;28;20226;-61
2022/01/26 06:28:06;;;;;;;4.00;3.80;;;2.00;99.90;;;;;;5031243;28;20672;-62
2022/01/26 06:30:35;;;;;;;4.63;4.33;;;2.00;99.90;;;;;;5028140;28;20228;-62
2022/01/26 06:33:02;;;;;;;4.23;3.97;;;2.00;99.90;;;;;;5020232;28;20255;-62
2022/01/26 06:35:29;;;;;;;4.50;4.20;;;1.90;99.90;;;;;;5022499;28;20228;-63
2022/01/26 06:37:56;;;;;;;4.43;4.13;;;2.00;99.90;;;;;;5025682;28;20240;-62
2022/01/26 06:40:24;;;;;;;4.77;4.47;;;1.90;99.90;;;;;;5031620;28;20197;-62
2022/01/26 06:42:54;;;;;;;5.07;4.77;;;1.90;99.90;;;;;;5031681;28;20212;-61
2022/01/26 06:45:24;;;;;;;5.00;4.70;;;1.90;99.90;;;;;;5031568;28;20610;-61
2022/01/26 06:48:11;;;;;;;5.30;4.90;;;1.90;99.90;;;;;;5031480;28;20269;-62
2022/01/26 06:50:38;;;;;;;4.93;4.60;;;1.90;99.90;;;;;;5034806;28;20220;-61
2022/01/26 06:53:05;;;;;;;5.53;5.17;;;1.90;99.90;;;;;;5025374;28;20291;-62
2022/01/26 06:55:32;;;;;;;5.97;5.57;;;1.80;99.90;;;;;;5035030;28;20220;-61
2022/01/26 06:57:59;;;;;;;5.63;5.23;;;1.80;99.90;;;;;;5034464;28;20205;-61
2022/01/26 07:00:26;;;;;;;6.03;5.63;;;1.70;99.90;;;;;;5026164;28;20225;-61
2022/01/26 07:02:54;;;;;;;5.90;5.50;;;1.70;99.90;;;;;;5038379;28;20667;-62
2022/01/26 07:05:22;;;;;;;5.37;4.97;;;1.80;99.90;;;;;;5037610;28;20233;-61
2022/01/26 07:07:49;;;;;;;5.73;5.43;;;1.80;99.90;;;;;;5030815;28;20211;-62
2022/01/26 07:10:16;;;;;;;5.33;5.03;;;1.90;99.90;;;;;;5037436;28;20271;-61
2022/01/26 07:12:43;;;;;;;5.63;5.23;;;1.90;99.90;;;;;;5038930;28;20288;-62
2022/01/26 07:23:35;;;;;;;5.13;4.80;;;1.90;99.90;;;;;;5034899;28;20545;-61
2022/01/26 07:26:01;;;;;;;5.27;4.93;;;1.90;99.90;;;;;;5035173;28;20640;-61
2022/01/26 07:28:34;;;;;;;5.70;5.10;;;2.00;99.90;;;;;;5035079;28;20208;-61
2022/01/26 07:31:01;;;;;;;6.40;5.90;;;2.00;99.90;;;;;;5034989;28;20247;-62
2022/01/26 07:33:29;;;;;;;6.00;5.60;;;1.90;99.90;;;;;;5034498;28;20290;-61
2022/01/26 07:35:56;;;;;;;5.47;5.17;;;1.90;99.90;;;;;;5028526;28;20224;-61
2022/01/26 07:38:25;;;;;;;5.60;5.23;;;1.90;99.90;;;;;;5034230;28;20287;-62
2022/01/26 07:40:52;;;;;;;5.43;5.13;;;2.00;99.90;;;;;;5034423;28;20627;-62
2022/01/26 07:43:18;;;;;;;6.50;6.00;;;2.00;99.90;;;;;;5034003;28;20721;-62
2022/01/26 07:45:45;;;;;;;5.67;5.27;;;2.00;99.90;;;;;;5033630;28;20327;-61
2022/01/26 07:48:12;;;;;;;6.23;5.83;;;2.00;99.90;;;;;;5034436;28;20291;-61
2022/01/26 07:50:41;;;;;;;5.63;5.23;;;2.00;99.90;;;;;;5034771;28;20267;-63
2022/01/26 07:53:13;;;;;;;5.70;5.30;;;2.00;99.90;;;;;;5035036;28;20204;-62
2022/01/26 07:55:40;;;;;;;5.37;5.07;;;2.10;99.90;;;;;;5034610;28;20665;-61
2022/01/26 07:58:09;;;;;;;5.67;5.27;;;2.10;99.90;;;;;;5034959;28;20636;-61
2022/01/26 08:00:36;;;;;;;5.60;5.20;;;2.20;99.90;;;;;;5033445;28;20244;-61
2022/01/26 08:03:03;;;;;;;6.30;5.90;;;2.20;99.90;;;;;;5034076;28;20236;-61
2022/01/26 08:05:30;;;;;;;5.90;5.50;;;2.20;99.90;;;;;;5034484;28;20777;-61
2022/01/26 08:07:58;;;;;;;5.87;5.47;;;2.20;99.90;;;;;;5034694;28;20246;-61
2022/01/26 08:10:25;;;;;;;6.40;6.00;;;2.20;99.90;;;;;;5033679;28;20225;-62
2022/01/26 08:12:52;;;;;;;6.17;5.77;;;2.30;99.90;;;;;;5028095;28;20209;-62
2022/01/26 08:15:19;;;;;;;6.27;5.87;;;2.20;99.90;;;;;;5026531;28;20256;-60
2022/01/26 08:17:46;;;;;;;6.50;6.00;;;2.20;99.90;;;;;;5031464;28;20205;-60
2022/01/26 08:20:13;;;;;;;6.37;5.97;;;2.20;99.90;;;;;;5030375;28;20701;-60
2022/01/26 08:22:40;;;;;;;6.00;5.60;;;2.20;99.90;;;;;;5033830;28;20675;-60
2022/01/26 08:25:10;;;;;;;6.40;6.00;;;2.20;99.90;;;;;;5027646;28;20303;-60
2022/01/26 08:27:41;;;;;;;6.47;5.97;;;2.20;99.90;;;;;;5027070;28;20287;-61
2022/01/26 08:30:11;;;;;;;6.07;5.67;;;2.20;99.90;;;;;;5033478;28;20259;-60
2022/01/26 08:32:38;;;;;;;6.40;6.00;;;2.30;99.90;;;;;;5033215;28;20300;-60
2022/01/26 08:35:06;;;;;;;6.33;5.93;;;2.30;99.90;;;;;;5022782;28;20256;-60
2022/01/26 08:37:33;;;;;;;6.00;5.60;;;2.30;99.90;;;;;;5037632;28;20235;-61
2022/01/26 08:40:00;;;;;;;6.70;6.23;;;2.40;99.90;;;;;;5037211;28;20241;-61
2022/01/26 08:42:28;;;;;;;8.43;7.80;;;2.40;99.90;;;;;;5035851;28;20237;-62
2022/01/26 08:44:55;;;;;;;7.17;6.67;;;2.20;99.90;;;;;;5023912;28;20345;-62
2022/01/26 08:47:22;;;;;;;7.30;6.80;;;2.10;99.90;;;;;;5033911;28;20296;-61
2022/01/26 08:49:49;;;;;;;7.10;6.60;;;2.00;99.90;;;;;;5035306;28;20293;-61
2022/01/26 08:52:17;;;;;;;6.50;6.10;;;1.90;99.90;;;;;;5033935;28;20227;-60
2022/01/26 08:54:43;;;;;;;6.37;5.97;;;1.90;99.90;;;;;;5033556;28;20315;-60
2022/01/26 08:57:10;;;;;;;5.83;5.43;;;2.00;99.90;;;;;;5034487;28;20211;-61
2022/01/26 08:59:40;;;;;;;6.10;5.70;;;2.10;99.90;;;;;;5034474;28;20204;-61
2022/01/26 09:02:08;;;;;;;5.70;5.30;;;2.10;99.90;;;;;;5034086;28;20200;-61
2022/01/26 09:04:34;;;;;;;5.43;5.13;;;2.20;99.90;;;;;;5034275;28;20238;-61
2022/01/26 09:07:03;;;;;;;5.83;5.43;;;2.30;99.90;;;;;;5034215;28;20215;-61
2022/01/26 09:09:40;;;;;;;5.97;5.57;;;2.20;99.90;;;;;;5034715;28;20226;-62
2022/01/26 09:12:09;;;;;;;5.60;5.20;;;2.30;99.90;;;;;;5034306;28;20255;-61
2022/01/26 09:14:36;;;;;;;5.60;5.20;;;2.40;99.90;;;;;;5033951;28;20228;-61
2022/01/26 09:17:05;;;;;;;5.90;5.50;;;2.30;99.90;;;;;;5034668;28;20308;-62
2022/01/26 09:19:32;;;;;;;5.57;5.27;;;2.40;99.90;;;;;;5035696;28;20223;-62
2022/01/26 09:22:01;;;;;;;5.70;5.30;;;2.40;99.90;;;;;;5036155;28;20287;-60
2022/01/26 09:24:32;;;;;;;5.60;5.20;;;2.50;99.90;;;;;;5035182;28;20307;-61
2022/01/26 09:26:59;;;;;;;5.90;5.50;;;2.40;99.90;;;;;;5034442;28;20276;-59
2022/01/26 09:29:27;;;;;;;6.13;5.73;;;2.40;99.90;;;;;;5033337;28;20243;-60
2022/01/26 09:31:54;;;;;;;5.67;5.37;;;2.50;99.90;;;;;;5034189;28;20320;-59
2022/01/26 09:34:24;;;;;;;5.27;4.97;;;2.50;99.90;;;;;;5033528;28;20311;-60
2022/01/26 09:36:51;;;;;;;5.27;4.97;;;2.50;99.90;;;;;;5033395;28;20240;-61
2022/01/26 09:39:20;;;;;;;5.10;4.80;;;2.50;99.90;;;;;;5032919;28;20200;-61
2022/01/26 09:41:48;;;;;;;5.37;5.07;;;2.60;99.90;;;;;;5032631;28;20738;-61
2022/01/26 09:44:16;;;;;;;4.90;4.60;;;2.60;99.90;;;;;;5057756;22;20670;-60
2022/01/26 09:46:44;;;;;;;4.87;4.57;;;2.60;99.90;;;;;;5038321;28;20232;-62
2022/01/26 09:49:14;;;;;;;5.03;4.73;;;2.60;99.90;;;;;;5042069;28;20228;-61
2022/01/26 09:51:46;;;;;;;5.23;4.93;;;2.70;99.90;;;;;;5041437;28;20224;-62
2022/01/26 09:54:16;;;;;;;5.70;5.30;;;2.70;99.90;;;;;;5034658;28;20201;-62
2022/01/26 09:56:47;;;;;;;5.67;5.37;;;2.70;99.90;;;;;;5032907;28;20678;-61
2022/01/26 09:59:14;;;;;;;5.90;5.50;;;2.70;99.90;;;;;;5033824;28;20201;-61
2022/01/26 10:01:43;;;;;;;5.40;5.10;;;2.70;99.90;;;;;;5033468;28;20200;-61
2022/01/26 10:04:21;;;;;;;5.47;5.17;;;2.80;99.90;;;;;;5033857;28;20295;-61
2022/01/26 10:07:00;;;;;;;6.00;5.60;;;2.70;99.90;;;;;;5036093;28;20236;-61
2022/01/26 10:09:47;;;;;;;5.43;5.13;;;2.60;99.90;;;;;;5034866;28;20207;-61
2022/01/26 10:15:29;;;;;;;5.20;4.90;;;2.70;99.90;;;;;;5008690;28;20231;-62
2022/01/26 10:18:09;;;;;;;5.50;5.10;;;2.70;99.90;;;;;;5035257;28;20205;-61
2022/01/26 10:20:44;;;;;;;5.83;5.43;;;2.70;99.90;;;;;;5045339;28;20203;-62
2022/01/26 10:23:16;;;;;;;5.10;4.80;;;2.70;99.90;;;;;;5041492;28;20200;-62
2022/01/26 10:25:46;;;;;;;5.80;5.40;;;2.80;99.90;;;;;;5044669;28;20259;-63
2022/01/26 10:28:15;;;;;;;5.17;4.87;;;2.80;99.90;;;;;;5042228;28;20208;-61
2022/01/26 10:30:47;;;;;;;5.20;4.90;;;2.90;99.90;;;;;;5036953;28;20209;-62
2022/01/26 10:33:16;;;;;;;5.53;5.23;;;2.90;99.90;;;;;;5037000;28;20631;-62
2022/01/26 10:35:43;;;;;;;5.20;4.90;;;3.00;99.90;;;;;;5036486;28;20255;-62
2022/01/26 10:38:12;;;;;;;5.30;5.00;;;3.00;99.90;;;;;;5027734;28;20197;-61
2022/01/26 10:40:40;;;;;;;5.80;5.40;;;2.90;99.90;;;;;;5037650;28;20232;-62
2022/01/26 10:43:10;;;;;;;6.63;6.13;;;3.00;99.90;;;;;;5038600;28;20212;-61
2022/01/26 10:45:48;;;;;;;6.17;5.77;;;3.00;99.90;;;;;;5035662;28;20242;-62
2022/01/26 10:48:24;;;;;;;5.90;5.60;;;3.00;99.90;;;;;;5034045;28;20627;-62
2022/01/26 10:54:08;;;;;;;5.20;4.90;;;3.10;99.90;;;;;;4956025;28;20365;-62
2022/01/26 10:56:35;;;;;;;5.30;5.00;;;3.10;99.90;;;;;;4949651;28;20610;-62
2022/01/26 10:59:03;;;;;;;5.17;4.87;;;3.10;99.90;;;;;;4960011;29;20212;-61
2022/01/26 11:01:30;;;;;;;5.07;4.77;;;3.20;99.90;;;;;;4960328;29;20332;-61
2022/01/26 11:03:57;;;;;;;6.00;5.60;;;3.20;99.90;;;;;;4956525;29;20294;-63
2022/01/26 11:06:26;;;;;;;6.53;6.10;;;2.90;99.90;;;;;;4959104;29;20769;-62
2022/01/26 11:08:58;;;;;;;6.03;5.73;;;2.70;99.90;;;;;;4960566;29;20204;-61
2022/01/26 11:11:26;;;;;;;5.57;5.27;;;2.60;99.90;;;;;;4960519;29;20286;-61
2022/01/26 11:13:54;;;;;;;5.10;4.80;;;2.50;99.90;;;;;;4957036;29;20516;-61
2022/01/26 11:16:21;;;;;;;5.33;5.03;;;2.40;99.90;;;;;;4945594;29;20255;-60
2022/01/26 11:18:51;;;;;;;5.60;5.20;;;2.50;99.90;;;;;;4941167;29;20728;-61
2022/01/26 11:21:33;;;;;;;5.47;5.17;;;2.50;99.90;;;;;;4949974;29;20334;-63
2022/01/26 11:24:10;;;;;;;5.17;4.87;;;2.40;99.90;;;;;;4958931;28;20207;-61
2022/01/26 11:26:39;;;;;;;5.50;5.17;;;2.30;99.90;;;;;;5030227;28;20288;-62
2022/01/26 11:29:21;;;;;;;5.43;5.13;;;2.30;99.90;;;;;;5024467;28;20292;-61
2022/01/26 11:31:59;;;;;;;5.53;5.23;;;2.40;99.90;;;;;;5022208;28;20262;-62
2022/01/26 11:34:27;;;;;;;6.00;5.60;;;2.30;99.90;;;;;;5021188;28;20197;-62
2022/01/26 11:36:59;;;;;;;5.93;5.53;;;2.20;99.90;;;;;;5029674;28;20304;-61
2022/01/26 11:45:03;;;;;;;6.27;5.83;;;2.10;99.90;;;;;;5039502;28;20199;-61
2022/01/26 11:45:23;;;;;;;7.13;6.63;;;2.10;99.90;;;;;;5035437;28;20260;-61
2022/01/26 11:48:01;;;;;;;6.37;5.97;;;2.00;99.90;;;;;;5036404;28;20205;-60
2022/01/26 11:50:29;;;;;;;6.47;6.07;;;2.00;99.90;;;;;;5033711;28;20220;-62
2022/01/26 11:53:01;;;;;;;5.87;5.47;;;2.20;99.90;;;;;;5033006;28;20304;-61
2022/01/26 11:55:37;;;;;;;6.10;5.70;;;2.20;99.90;;;;;;5034925;28;20220;-62
2022/01/26 11:58:15;;;;;;;6.33;5.93;;;2.40;99.90;;;;;;5038580;28;20723;-63
2022/01/26 12:00:51;;;;;;;5.73;5.33;;;2.30;99.90;;;;;;5033739;28;20204;-63
2022/01/26 12:03:23;;;;;;;5.97;5.57;;;2.40;99.90;;;;;;5038451;28;20269;-61
2022/01/26 12:05:54;;;;;;;5.80;5.40;;;2.30;99.90;;;;;;5041002;28;20252;-61
2022/01/26 12:08:29;;;;;;;6.00;5.60;;;2.30;99.90;;;;;;5035328;28;20216;-63
2022/01/26 12:10:57;;;;;;;6.50;6.10;;;2.30;99.90;;;;;;5035134;28;20211;-61
2022/01/26 12:13:27;;;;;;;6.43;6.03;;;2.30;99.90;;;;;;5040038;28;20314;-62
2022/01/26 12:15:57;;;;;;;6.80;6.40;;;2.40;99.90;;;;;;5034552;28;20303;-63
2022/01/26 12:18:31;;;;;;;6.83;6.33;;;2.30;99.90;;;;;;5027597;28;20212;-60
2022/01/26 12:32:45;;;;;;;7.10;6.60;;;2.20;99.90;;;;;;5032626;28;20743;-62
2022/01/26 12:35:19;;;;;;;7.03;6.53;;;2.00;99.90;;;;;;5031380;28;20282;-61
2022/01/26 12:38:05;;;;;;;7.00;6.60;;;1.90;99.90;;;;;;5028615;28;20200;-61
2022/01/26 12:43:32;;;;;;;6.00;5.60;;;2.10;99.90;;;;;;5021872;28;20580;-62
2022/01/26 12:45:59;;;;;;;6.13;5.73;;;2.20;99.90;;;;;;5021659;28;20323;-61
2022/01/26 12:48:27;;;;;;;5.90;5.50;;;2.30;99.90;;;;;;5016949;28;20340;-61
2022/01/26 12:50:55;;;;;;;5.87;5.57;;;2.40;99.90;;;;;;5013303;28;20300;-62
2022/01/26 12:53:27;;;;;;;5.73;5.33;;;2.40;99.90;;;;;;5015125;28;20232;-62
2022/01/26 12:55:56;;;;;;;5.80;5.40;;;2.40;99.90;;;;;;5014460;28;20229;-62
2022/01/26 12:58:31;;;;;;;6.27;5.87;;;2.30;99.90;;;;;;5016346;28;21430;-61
2022/01/26 13:01:03;;;;;;;6.40;6.00;;;2.20;99.90;;;;;;5018365;28;20201;-61
2022/01/26 13:03:32;;;;;;;6.20;5.80;;;2.10;99.90;;;;;;5027237;28;20284;-62
2022/01/26 13:06:10;;;;;;;5.97;5.57;;;2.10;99.90;;;;;;5028288;28;20231;-62
2022/01/26 13:08:46;;;;;;;6.20;5.80;;;2.20;99.90;;;;;;5017093;28;20224;-61
2022/01/26 13:11:13;;;;;;;6.27;5.87;;;2.30;99.90;;;;;;5014588;28;20205;-61
2022/01/26 13:13:42;;;;;;;4.80;4.50;;;2.40;99.90;;;;;;5020672;28;20205;-61
2022/01/26 13:16:17;;;;;;;6.20;5.80;;;2.30;99.90;;;;;;5020770;28;20225;-61
2022/01/26 13:19:16;;;;;;;6.00;5.70;;;2.30;99.90;;;;;;5016527;28;20667;-62
2022/01/26 13:27:17;;;;;;;6.13;5.73;;;2.50;99.90;;;;;;5017343;28;20201;-60
2022/01/26 13:30:04;;;;;;;5.73;5.33;;;2.50;99.90;;;;;;5018212;28;20694;-61
2022/01/26 13:33:02;;;;;;;5.53;5.23;;;2.50;99.90;;;;;;5028630;28;20209;-60
2022/01/26 13:35:43;;;;;;;5.77;5.37;;;2.70;99.90;;;;;;5021286;28;20243;-62
2022/01/26 13:38:21;;;;;;;6.30;5.90;;;2.70;99.90;;;;;;5029337;28;20547;-61
2022/01/26 13:41:01;;;;;;;6.83;6.30;;;2.60;99.90;;;;;;5038146;28;20204;-62
2022/01/26 13:44:13;;;;;;;5.97;5.67;;;2.60;99.90;;;;;;5031659;28;20878;-61
2022/01/26 13:49:46;;;;;;;6.27;5.87;;;2.50;99.90;;;;;;5018426;28;20228;-61
2022/01/26 13:52:34;;;;;;;6.37;5.93;;;2.60;99.90;;;;;;5027416;28;20235;-62
2022/01/26 13:55:21;;;;;;;6.20;5.77;;;2.40;99.90;;;;;;5023557;28;20363;-60
2022/01/26 14:00:39;;;;;;;6.60;6.20;;;2.40;99.90;;;;;;5028338;28;20251;-62
2022/01/26 14:03:10;;;;;;;6.33;5.90;;;2.30;99.90;;;;;;5027006;28;20225;-60
2022/01/26 14:05:37;;;;;;;6.83;6.43;;;2.30;99.90;;;;;;5027560;28;20335;-61
2022/01/26 14:08:04;;;;;;;6.53;6.03;;;2.20;99.90;;;;;;5025545;28;20215;-62
2022/01/26 14:10:33;;;;;;;6.33;5.93;;;2.10;99.90;;;;;;5026917;28;20772;-62
2022/01/26 14:13:00;;;;;;;6.60;6.20;;;2.20;99.90;;;;;;5025090;28;20677;-61
2022/01/26 14:15:38;;;;;;;6.47;6.07;;;2.40;99.90;;;;;;5031099;28;20244;-61
2022/01/26 14:18:37;;;;;;;6.50;6.00;;;2.40;99.90;;;;;;5027984;28;20215;-60
2022/01/26 14:21:07;;;;;;;6.00;5.60;;;2.40;99.90;;;;;;5034317;28;20231;-61
2022/01/26 14:23:58;;;;;;;6.50;6.07;;;2.30;99.90;;;;;;5031787;28;20666;-61
2022/01/26 14:26:29;;;;;;;6.60;6.20;;;2.30;99.90;;;;;;5033561;28;20225;-60
2022/01/26 14:28:56;;;;;;;6.70;6.30;;;2.40;99.90;;;;;;5030747;28;20204;-62
2022/01/26 14:31:32;;;;;;;6.00;5.60;;;2.30;99.90;;;;;;5031451;28;20232;-61
2022/01/26 14:39:38;;;;;;;6.27;5.87;;;2.30;99.90;;;;;;4991274;28;20202;-62
2022/01/26 14:50:59;;;;;;;7.00;6.50;;;1.90;99.90;;;;;;5028750;28;20204;-61
2022/01/26 15:00:02;;;;;;;7.33;6.83;;;1.90;99.90;;;;;;4977568;28;20224;-60
2022/01/26 15:34:57;;;;;;;6.50;6.10;;;1.90;99.90;;;;;;5020530;28;20304;-61
2022/01/26 15:40:24;;;;;;;6.70;6.30;;;2.20;99.90;;;;;;5019082;28;20544;-61
2022/01/26 15:51:09;;;;;;;6.50;6.00;;;2.50;99.90;;;;;;5036075;22;20240;-65
2022/01/26 15:59:24;;;;;;;6.43;6.00;;;2.50;99.90;;;;;;5003947;28;20296;-64
2022/01/26 16:05:02;;;;;;;7.67;7.07;;;2.70;99.90;;;;;;4980073;28;20216;-65
2022/01/26 16:07:41;;;;;;;6.97;6.47;;;2.70;99.90;;;;;;4983089;28;20198;-64
2022/01/26 16:16:29;;;;;;;6.07;5.67;;;2.80;99.90;;;;;;4987302;28;20217;-64
2022/01/26 16:21:24;;;;;;;5.83;5.43;;;2.80;99.90;;;;;;4981966;28;20305;-65
2022/01/26 16:27:06;;;;;;;6.40;6.00;;;2.80;99.90;;;;;;4980418;28;20198;-64